Adger, Alabama
Current Conditions -  °F | °C
As of 6:53 PM on Tuesday 21 Oct 2014 (Local Time) from KBHM Reporting Station
Clear Clear  
Wind Chill: 60°   Ceiling: Unl
Heat Index: 60°   Visibility: 10mi
Dew Point: 49°   Wind: 6mph
Humidity: 67%   Direction: 350°N
Pressure: 30.03"   Gusts: NA
Location:  33.44°N, 87.19°W
Report Text: KBHM 212353Z 35005KT 10SM CLR 16/09 A3003 RMK AO2 SLP166 T01560094 10261 20156 53005
Loading
Personal Weather Stations






























Interactive Weather Map New forecast layout! Learn more

10-Day Weather Forecast

Advertisements
Track Severe Weather on mobile